createdAt,value
2022-08-03T00:00:17.469Z,1008.76
2022-08-03T00:01:17.618Z,1008.73
2022-08-03T00:02:17.980Z,1008.77
2022-08-03T00:03:17.955Z,1008.74
2022-08-03T00:04:18.025Z,1008.79
2022-08-03T00:05:18.180Z,1008.78
2022-08-03T00:06:18.299Z,1008.74
2022-08-03T00:07:18.474Z,1008.77
2022-08-03T00:08:19.579Z,1008.76
2022-08-03T00:09:18.744Z,1008.73
2022-08-03T00:10:18.839Z,1008.78
2022-08-03T00:11:18.986Z,1008.73
2022-08-03T00:12:19.287Z,1008.77
2022-08-03T00:13:19.267Z,1008.70
2022-08-03T00:14:19.367Z,1008.80
2022-08-03T00:15:19.507Z,1008.68
2022-08-03T00:16:19.670Z,1008.69
2022-08-03T00:17:19.834Z,1008.69
2022-08-03T00:18:19.906Z,1008.64
2022-08-03T00:19:20.056Z,1008.59
2022-08-03T00:20:20.179Z,1008.65
2022-08-03T00:21:20.287Z,1008.60
2022-08-03T00:22:20.481Z,1008.62
2022-08-03T00:23:20.567Z,1008.68
2022-08-03T00:24:20.720Z,1008.64
2022-08-03T00:25:20.867Z,1008.60
2022-08-03T00:26:21.044Z,1008.65
2022-08-03T00:27:21.160Z,1008.69
2022-08-03T00:28:21.260Z,1008.63
2022-08-03T00:29:21.407Z,1008.67
2022-08-03T00:30:21.555Z,1008.63
2022-08-03T00:31:27.780Z,1008.64
2022-08-03T00:32:24.079Z,1008.69
2022-08-03T00:33:21.977Z,1008.70
2022-08-03T00:34:29.822Z,1008.59
2022-08-03T00:35:32.606Z,1008.63
2022-08-03T00:36:23.297Z,1008.69
2022-08-03T00:37:22.388Z,1008.66
2022-08-03T00:38:23.517Z,1008.68
2022-08-03T00:39:22.617Z,1008.69
2022-08-03T00:40:22.739Z,1008.65
2022-08-03T00:41:22.847Z,1008.68
2022-08-03T00:42:23.017Z,1008.62
2022-08-03T00:43:24.170Z,1008.67
2022-08-03T00:44:23.238Z,1008.67
2022-08-03T00:45:23.424Z,1008.65
2022-08-03T00:46:23.572Z,1008.57
2022-08-03T00:47:23.718Z,1008.63
2022-08-03T00:48:32.830Z,1008.57
2022-08-03T00:49:25.050Z,1008.62
2022-08-03T00:50:24.087Z,1008.65
2022-08-03T00:51:24.224Z,1008.61
2022-08-03T00:52:24.318Z,1008.64
2022-08-03T00:53:24.488Z,1008.60
2022-08-03T00:54:24.659Z,1008.59
2022-08-03T00:55:24.788Z,1008.67
2022-08-03T00:56:24.887Z,1008.57
2022-08-03T00:57:25.046Z,1008.55
2022-08-03T00:58:25.209Z,1008.53
2022-08-03T00:59:25.305Z,1008.57
2022-08-03T01:00:25.446Z,1008.55
2022-08-03T01:01:25.630Z,1008.57
2022-08-03T01:02:25.668Z,1008.55
2022-08-03T01:03:25.826Z,1008.59
2022-08-03T01:04:25.980Z,1008.60
2022-08-03T01:05:26.087Z,1008.55
2022-08-03T01:06:26.208Z,1008.58
2022-08-03T01:07:26.355Z,1008.56
2022-08-03T01:08:26.498Z,1008.62
2022-08-03T01:09:28.648Z,1008.64
2022-08-03T01:10:26.798Z,1008.59
2022-08-03T01:11:26.898Z,1008.65
2022-08-03T01:12:27.039Z,1008.56
2022-08-03T01:14:03.447Z,1008.54
2022-08-03T01:14:28.297Z,1008.59
2022-08-03T01:15:27.426Z,1008.57
2022-08-03T01:16:35.882Z,1008.53
2022-08-03T01:17:28.689Z,1008.52
2022-08-03T01:18:27.810Z,1008.53
2022-08-03T01:19:27.975Z,1008.57
2022-08-03T01:20:28.108Z,1008.53
2022-08-03T01:21:28.269Z,1008.52
2022-08-03T01:22:28.438Z,1008.53
2022-08-03T01:23:29.047Z,1008.49
2022-08-03T01:24:28.736Z,1008.48
2022-08-03T01:25:28.882Z,1008.47
2022-08-03T01:26:29.049Z,1008.49
2022-08-03T01:27:29.144Z,1008.51
2022-08-03T01:28:29.298Z,1008.50
2022-08-03T01:29:29.466Z,1008.52
2022-08-03T01:30:29.677Z,1008.55
2022-08-03T01:31:29.739Z,1008.56
2022-08-03T01:33:02.226Z,1008.55
2022-08-03T01:33:31.010Z,1008.59
2022-08-03T01:34:30.214Z,1008.57
2022-08-03T01:35:30.289Z,1008.55
2022-08-03T01:36:30.485Z,1008.57
2022-08-03T01:37:30.579Z,1008.57
2022-08-03T01:38:30.759Z,1008.49
2022-08-03T01:39:30.839Z,1008.49
2022-08-03T01:40:30.978Z,1008.52
2022-08-03T01:41:31.167Z,1008.54
2022-08-03T01:42:31.308Z,1008.55
2022-08-03T01:43:55.217Z,1008.54
2022-08-03T01:44:32.597Z,1008.44
2022-08-03T01:45:33.999Z,1008.50
2022-08-03T01:46:31.939Z,1008.48
2022-08-03T01:47:32.006Z,1008.49
2022-08-03T01:48:32.173Z,1008.47
2022-08-03T01:49:32.407Z,1008.48
2022-08-03T01:50:32.442Z,1008.49
2022-08-03T01:52:02.804Z,1008.46
2022-08-03T01:52:33.706Z,1008.50
2022-08-03T01:53:32.867Z,1008.50
2022-08-03T01:54:33.019Z,1008.44
2022-08-03T01:55:33.118Z,1008.44
2022-08-03T01:56:33.275Z,1008.42
2022-08-03T01:57:33.460Z,1008.40
2022-08-03T01:58:34.548Z,1008.39
2022-08-03T01:59:33.668Z,1008.35
2022-08-03T02:00:33.861Z,1008.39
2022-08-03T02:02:15.325Z,1008.37
2022-08-03T02:02:36.521Z,1008.35
2022-08-03T02:03:34.197Z,1008.36
2022-08-03T02:04:34.356Z,1008.29
2022-08-03T02:05:34.508Z,1008.32
2022-08-03T02:07:01.549Z,1008.37
2022-08-03T02:07:35.766Z,1008.34
2022-08-03T02:08:34.949Z,1008.31
2022-08-03T02:09:35.095Z,1008.33
2022-08-03T02:10:36.071Z,1008.30
2022-08-03T02:11:35.357Z,1008.38
2022-08-03T02:12:35.529Z,1008.34
2022-08-03T02:13:35.617Z,1008.40
2022-08-03T02:14:35.712Z,1008.30
2022-08-03T02:15:35.834Z,1008.29
2022-08-03T02:16:36.009Z,1008.37
2022-08-03T02:17:38.486Z,1008.34
2022-08-03T02:18:36.180Z,1008.35
2022-08-03T02:19:36.316Z,1008.38
2022-08-03T02:20:36.505Z,1008.36
2022-08-03T02:21:57.156Z,1008.38
2022-08-03T02:22:37.723Z,1008.35
2022-08-03T02:23:36.889Z,1008.36
2022-08-03T02:24:37.056Z,1008.32
2022-08-03T02:25:37.129Z,1008.35
2022-08-03T02:26:37.349Z,1008.41
2022-08-03T02:27:40.570Z,1008.39
2022-08-03T02:28:38.516Z,1008.38
2022-08-03T02:29:39.417Z,1008.42
2022-08-03T02:30:37.859Z,1008.44
2022-08-03T02:31:38.027Z,1008.42
2022-08-03T02:32:38.206Z,1008.42
2022-08-03T02:33:38.347Z,1008.42
2022-08-03T02:34:38.459Z,1008.45
2022-08-03T02:35:38.565Z,1008.38
2022-08-03T02:36:38.741Z,1008.39
2022-08-03T02:37:38.905Z,1008.39
2022-08-03T02:38:38.983Z,1008.43
2022-08-03T02:39:39.134Z,1008.39
2022-08-03T02:40:39.287Z,1008.36
2022-08-03T02:41:39.456Z,1008.40
2022-08-03T02:42:39.649Z,1008.37
2022-08-03T02:44:06.557Z,1008.38
2022-08-03T02:44:40.956Z,1008.41
2022-08-03T02:45:43.770Z,1008.40
2022-08-03T02:46:41.139Z,1008.39
2022-08-03T02:47:53.140Z,1008.42
2022-08-03T02:48:41.444Z,1008.35
2022-08-03T02:49:50.571Z,1008.35
2022-08-03T02:50:41.745Z,1008.35
2022-08-03T02:51:40.856Z,1008.33
2022-08-03T02:52:40.992Z,1008.38
2022-08-03T02:53:41.147Z,1008.29
2022-08-03T02:54:41.238Z,1008.36
2022-08-03T02:55:42.941Z,1008.40
2022-08-03T02:56:41.536Z,1008.37
2022-08-03T02:57:41.659Z,1008.43
2022-08-03T02:58:41.808Z,1008.36
2022-08-03T02:59:41.891Z,1008.40
2022-08-03T03:00:42.068Z,1008.34
2022-08-03T03:01:42.149Z,1008.34
2022-08-03T03:02:43.907Z,1008.38
2022-08-03T03:03:44.749Z,1008.30
2022-08-03T03:04:58.834Z,1008.35
2022-08-03T03:05:55.790Z,1008.34
2022-08-03T03:06:43.774Z,1008.36
2022-08-03T03:07:51.866Z,1008.35
2022-08-03T03:08:44.027Z,1008.35
2022-08-03T03:09:43.312Z,1008.36
2022-08-03T03:10:43.213Z,1008.35
2022-08-03T03:11:43.348Z,1008.36
2022-08-03T03:12:43.480Z,1008.33
2022-08-03T03:13:43.607Z,1008.40
2022-08-03T03:14:43.742Z,1008.35
2022-08-03T03:15:43.870Z,1008.30
2022-08-03T03:16:44.007Z,1008.33
2022-08-03T03:17:44.125Z,1008.32
2022-08-03T03:18:44.266Z,1008.32
2022-08-03T03:19:44.396Z,1008.31
2022-08-03T03:20:44.543Z,1008.33
2022-08-03T03:21:44.626Z,1008.35
2022-08-03T03:22:45.281Z,1008.32
2022-08-03T03:23:44.915Z,1008.35
2022-08-03T03:24:45.044Z,1008.35
2022-08-03T03:25:45.174Z,1008.36
2022-08-03T03:26:45.306Z,1008.37
2022-08-03T03:27:48.831Z,1008.38
2022-08-03T03:28:46.627Z,1008.34
2022-08-03T03:29:45.703Z,1008.30
2022-08-03T03:30:52.609Z,1008.37
2022-08-03T03:31:46.999Z,1008.39
2022-08-03T03:32:46.146Z,1008.37
2022-08-03T03:33:46.307Z,1008.37
2022-08-03T03:34:46.479Z,1008.34
2022-08-03T03:35:46.638Z,1008.35
2022-08-03T03:36:46.737Z,1008.31
2022-08-03T03:37:46.866Z,1008.36
2022-08-03T03:38:47.015Z,1008.34
2022-08-03T03:39:47.118Z,1008.35
2022-08-03T03:40:47.284Z,1008.39
2022-08-03T03:41:47.404Z,1008.38
2022-08-03T03:42:47.532Z,1008.40
2022-08-03T03:43:47.665Z,1008.42
2022-08-03T03:44:47.842Z,1008.45
2022-08-03T03:45:48.008Z,1008.38
2022-08-03T03:46:48.551Z,1008.38
2022-08-03T03:47:48.334Z,1008.43
2022-08-03T03:48:48.414Z,1008.41
2022-08-03T03:49:48.565Z,1008.43
2022-08-03T03:50:48.672Z,1008.45
2022-08-03T03:51:48.790Z,1008.45
2022-08-03T03:52:48.938Z,1008.45
2022-08-03T03:53:49.025Z,1008.44
2022-08-03T03:54:49.173Z,1008.46
2022-08-03T03:55:59.551Z,1008.42
2022-08-03T03:56:50.387Z,1008.41
2022-08-03T03:57:49.504Z,1008.37
2022-08-03T03:58:49.644Z,1008.35
2022-08-03T03:59:49.779Z,1008.33
2022-08-03T04:00:50.009Z,1008.33
2022-08-03T04:01:58.503Z,1008.32
2022-08-03T04:02:51.146Z,1008.35
2022-08-03T04:03:50.273Z,1008.34
2022-08-03T04:04:50.447Z,1008.37
2022-08-03T04:05:50.522Z,1008.34
2022-08-03T04:06:50.668Z,1008.41
2022-08-03T04:07:50.796Z,1008.43
2022-08-03T04:08:50.933Z,1008.39
2022-08-03T04:09:51.083Z,1008.40
2022-08-03T04:10:51.195Z,1008.37
2022-08-03T04:11:51.335Z,1008.38
2022-08-03T04:12:51.462Z,1008.44
2022-08-03T04:13:51.604Z,1008.39
2022-08-03T04:14:51.776Z,1008.39
2022-08-03T04:15:51.854Z,1008.44
2022-08-03T04:16:51.982Z,1008.45
2022-08-03T04:17:52.124Z,1008.38
2022-08-03T04:18:52.281Z,1008.41
2022-08-03T04:19:52.383Z,1008.37
2022-08-03T04:20:52.495Z,1008.39
2022-08-03T04:21:52.605Z,1008.36
2022-08-03T04:22:52.747Z,1008.40
2022-08-03T04:23:52.883Z,1008.38
2022-08-03T04:24:53.035Z,1008.43
2022-08-03T04:25:53.145Z,1008.38
2022-08-03T04:26:53.257Z,1008.37
2022-08-03T04:28:07.769Z,1008.37
2022-08-03T04:28:54.515Z,1008.40
2022-08-03T04:29:53.637Z,1008.45
2022-08-03T04:30:53.822Z,1008.46
2022-08-03T04:31:53.893Z,1008.42
2022-08-03T04:32:54.057Z,1008.41
2022-08-03T04:33:54.153Z,1008.39
2022-08-03T04:34:54.264Z,1008.38
2022-08-03T04:36:00.935Z,1008.44
2022-08-03T04:36:55.536Z,1008.39
2022-08-03T04:37:54.644Z,1008.44
2022-08-03T04:38:54.792Z,1008.45
2022-08-03T04:39:57.648Z,1008.41
2022-08-03T04:40:55.087Z,1008.43
2022-08-03T04:42:07.783Z,1008.43
2022-08-03T04:42:56.292Z,1008.45
2022-08-03T04:43:55.414Z,1008.46
2022-08-03T04:45:00.422Z,1008.45
2022-08-03T04:45:56.685Z,1008.47
2022-08-03T04:46:55.815Z,1008.49
2022-08-03T04:47:55.942Z,1008.44
2022-08-03T04:48:56.132Z,1008.43
2022-08-03T04:49:56.195Z,1008.46
2022-08-03T04:50:56.367Z,1008.48
2022-08-03T04:51:56.454Z,1008.45
2022-08-03T04:52:56.595Z,1008.49
2022-08-03T04:53:56.743Z,1008.51
2022-08-03T04:54:56.882Z,1008.51
2022-08-03T04:55:57.023Z,1008.49
2022-08-03T04:56:57.193Z,1008.49
2022-08-03T04:57:57.284Z,1008.53
2022-08-03T04:58:57.394Z,1008.53
2022-08-03T05:00:02.615Z,1008.50
2022-08-03T05:00:58.663Z,1008.52
2022-08-03T05:01:57.871Z,1008.52
2022-08-03T05:02:57.936Z,1008.56
2022-08-03T05:03:58.056Z,1008.50
2022-08-03T05:04:58.186Z,1008.48
2022-08-03T05:06:09.756Z,1008.53
2022-08-03T05:06:59.445Z,1008.48
2022-08-03T05:08:00.818Z,1008.52
2022-08-03T05:08:58.683Z,1008.47
2022-08-03T05:10:02.962Z,1008.50
2022-08-03T05:10:59.475Z,1008.50
2022-08-03T05:11:59.017Z,1008.49
2022-08-03T05:12:59.164Z,1008.52
2022-08-03T05:13:59.318Z,1008.48
2022-08-03T05:14:59.422Z,1008.53
2022-08-03T05:15:59.552Z,1008.53
2022-08-03T05:16:59.704Z,1008.52
2022-08-03T05:17:59.836Z,1008.56
2022-08-03T05:18:59.946Z,1008.53
2022-08-03T05:20:00.073Z,1008.52
2022-08-03T05:21:00.237Z,1008.55
2022-08-03T05:22:00.334Z,1008.58
2022-08-03T05:23:00.506Z,1008.53
2022-08-03T05:24:00.587Z,1008.59
2022-08-03T05:25:00.740Z,1008.55
2022-08-03T05:26:00.834Z,1008.54
2022-08-03T05:27:00.976Z,1008.55
2022-08-03T05:28:01.149Z,1008.54
2022-08-03T05:29:01.250Z,1008.59
2022-08-03T05:30:30.590Z,1008.61
2022-08-03T05:31:02.475Z,1008.61
2022-08-03T05:32:06.247Z,1008.61
2022-08-03T05:33:02.701Z,1008.59
2022-08-03T05:34:01.795Z,1008.59
2022-08-03T05:35:55.818Z,1008.60
2022-08-03T05:36:04.404Z,1008.54
2022-08-03T05:37:02.207Z,1008.61
2022-08-03T05:38:02.334Z,1008.54
2022-08-03T05:39:03.025Z,1008.60
2022-08-03T05:40:02.573Z,1008.61
2022-08-03T05:41:21.590Z,1008.57
2022-08-03T05:42:03.827Z,1008.59
2022-08-03T05:43:02.957Z,1008.52
2022-08-03T05:44:03.108Z,1008.57
2022-08-03T05:45:03.213Z,1008.60
2022-08-03T05:46:12.037Z,1008.56
2022-08-03T05:47:04.475Z,1008.55
2022-08-03T05:48:03.605Z,1008.55
2022-08-03T05:49:03.921Z,1008.62
2022-08-03T05:50:03.845Z,1008.59
2022-08-03T05:51:03.965Z,1008.57
2022-08-03T05:52:12.796Z,1008.60
2022-08-03T05:53:05.936Z,1008.59
2022-08-03T05:54:04.452Z,1008.55
2022-08-03T05:55:04.417Z,1008.59
2022-08-03T05:56:13.651Z,1008.60
2022-08-03T05:57:06.089Z,1008.59
2022-08-03T05:58:04.816Z,1008.65
2022-08-03T05:59:35.447Z,1008.63
2022-08-03T06:00:06.615Z,1008.61
2022-08-03T06:01:05.585Z,1008.63
2022-08-03T06:02:05.378Z,1008.59
2022-08-03T06:03:05.477Z,1008.63
2022-08-03T06:04:05.635Z,1008.59
2022-08-03T06:05:05.736Z,1008.61
2022-08-03T06:06:05.845Z,1008.58
2022-08-03T06:07:05.993Z,1008.65
2022-08-03T06:08:06.108Z,1008.63
2022-08-03T06:09:06.257Z,1008.64
2022-08-03T06:10:35.887Z,1008.62
2022-08-03T06:11:07.514Z,1008.60
2022-08-03T06:12:09.107Z,1008.62
2022-08-03T06:13:06.834Z,1008.61
2022-08-03T06:14:06.888Z,1008.62
2022-08-03T06:15:07.847Z,1008.65
2022-08-03T06:16:07.142Z,1008.59
2022-08-03T06:17:07.264Z,1008.57
2022-08-03T06:18:07.416Z,1008.64
2022-08-03T06:19:07.554Z,1008.64
2022-08-03T06:20:07.648Z,1008.61
2022-08-03T06:21:15.004Z,1008.58
2022-08-03T06:22:08.909Z,1008.62
2022-08-03T06:23:08.111Z,1008.63
2022-08-03T06:24:09.199Z,1008.65
2022-08-03T06:25:11.275Z,1008.67
2022-08-03T06:26:08.421Z,1008.66
2022-08-03T06:27:08.518Z,1008.68
2022-08-03T06:28:14.966Z,1008.69
2022-08-03T06:29:09.975Z,1008.66
2022-08-03T06:30:10.652Z,1008.71
2022-08-03T06:31:09.070Z,1008.69
2022-08-03T06:32:09.902Z,1008.68
2022-08-03T06:33:09.296Z,1008.71
2022-08-03T06:34:34.145Z,1008.70
2022-08-03T06:35:10.558Z,1008.64
2022-08-03T06:36:09.637Z,1008.65
2022-08-03T06:37:09.736Z,1008.70
2022-08-03T06:38:09.878Z,1008.71
2022-08-03T06:39:10.006Z,1008.64
2022-08-03T06:40:10.097Z,1008.65
2022-08-03T06:41:10.208Z,1008.68
2022-08-03T06:42:10.397Z,1008.66
2022-08-03T06:43:12.434Z,1008.62
2022-08-03T06:44:10.695Z,1008.61
2022-08-03T06:45:10.771Z,1008.62
2022-08-03T06:46:10.866Z,1008.67
2022-08-03T06:47:10.966Z,1008.69
2022-08-03T06:48:11.107Z,1008.68
2022-08-03T06:49:11.297Z,1008.73
2022-08-03T06:50:16.658Z,1008.74
2022-08-03T06:51:12.398Z,1008.72
2022-08-03T06:52:11.539Z,1008.73
2022-08-03T06:53:19.824Z,1008.71
2022-08-03T06:54:12.778Z,1008.69
2022-08-03T06:55:11.906Z,1008.70
2022-08-03T06:56:14.008Z,1008.68
2022-08-03T06:57:12.181Z,1008.67
2022-08-03T06:58:12.267Z,1008.64
2022-08-03T07:00:10.467Z,1008.67
2022-08-03T07:00:13.900Z,1008.62
2022-08-03T07:01:12.643Z,1008.54
2022-08-03T07:02:12.752Z,1008.60
2022-08-03T07:03:13.856Z,1008.58
2022-08-03T07:04:12.989Z,1008.58
2022-08-03T07:05:13.150Z,1008.62
2022-08-03T07:06:13.279Z,1008.63
2022-08-03T07:07:13.380Z,1008.69
2022-08-03T07:08:13.501Z,1008.60
2022-08-03T07:09:13.602Z,1008.63
2022-08-03T07:10:13.741Z,1008.65
2022-08-03T07:11:13.878Z,1008.70
2022-08-03T07:12:14.029Z,1008.67
2022-08-03T07:13:14.154Z,1008.66
2022-08-03T07:14:14.262Z,1008.63
2022-08-03T07:15:20.380Z,1008.66
2022-08-03T07:16:15.508Z,1008.69
2022-08-03T07:17:14.640Z,1008.68
2022-08-03T07:18:14.790Z,1008.69
2022-08-03T07:19:14.891Z,1008.60
2022-08-03T07:20:15.057Z,1008.66
2022-08-03T07:21:15.150Z,1008.71
2022-08-03T07:22:15.449Z,1008.78
2022-08-03T07:23:19.196Z,1008.71
2022-08-03T07:24:15.516Z,1008.73
2022-08-03T07:25:15.641Z,1008.74
2022-08-03T07:26:15.799Z,1008.69
2022-08-03T07:27:15.903Z,1008.70
2022-08-03T07:28:16.050Z,1008.70
2022-08-03T07:29:16.150Z,1008.72
2022-08-03T07:30:16.291Z,1008.74
2022-08-03T07:31:16.418Z,1008.74
2022-08-03T07:32:16.836Z,1008.72
2022-08-03T07:33:16.863Z,1008.73
2022-08-03T07:34:16.824Z,1008.77
2022-08-03T07:35:24.805Z,1008.72
2022-08-03T07:36:18.091Z,1008.79
2022-08-03T07:37:17.162Z,1008.79
2022-08-03T07:38:17.322Z,1008.82
2022-08-03T07:39:18.070Z,1008.79
2022-08-03T07:40:17.552Z,1008.82
2022-08-03T07:41:17.671Z,1008.77
2022-08-03T07:42:18.196Z,1008.81
2022-08-03T07:43:17.991Z,1008.76
2022-08-03T07:44:18.063Z,1008.73
2022-08-03T07:45:18.191Z,1008.78
2022-08-03T07:46:18.333Z,1008.79
2022-08-03T07:47:22.654Z,1008.77
2022-08-03T07:48:18.625Z,1008.74
2022-08-03T07:49:18.798Z,1008.78
2022-08-03T07:50:18.836Z,1008.78
2022-08-03T07:51:18.933Z,1008.84
2022-08-03T07:52:19.317Z,1008.80
2022-08-03T07:53:19.205Z,1008.79
2022-08-03T07:54:19.373Z,1008.80
2022-08-03T07:55:19.453Z,1008.84
2022-08-03T07:56:19.595Z,1008.74
2022-08-03T07:57:19.746Z,1008.77
2022-08-03T07:58:24.006Z,1008.79
2022-08-03T07:59:20.006Z,1008.77
2022-08-03T08:00:20.176Z,1008.79
2022-08-03T08:01:20.285Z,1008.70
2022-08-03T08:02:20.364Z,1008.72
2022-08-03T08:03:20.465Z,1008.79
2022-08-03T08:04:20.627Z,1008.76
2022-08-03T08:05:20.704Z,1008.80
2022-08-03T08:06:20.855Z,1008.79
2022-08-03T08:07:20.988Z,1008.77
2022-08-03T08:08:21.125Z,1008.79
2022-08-03T08:09:21.270Z,1008.79
2022-08-03T08:10:21.434Z,1008.86
2022-08-03T08:11:21.516Z,1008.87
2022-08-03T08:12:21.690Z,1008.80
2022-08-03T08:13:21.847Z,1008.89
2022-08-03T08:14:22.080Z,1008.84
2022-08-03T08:15:22.099Z,1008.83
2022-08-03T08:16:22.206Z,1008.84
2022-08-03T08:17:22.286Z,1008.79
2022-08-03T08:18:22.437Z,1008.80
2022-08-03T08:19:22.573Z,1008.80
2022-08-03T08:20:23.841Z,1008.78
2022-08-03T08:21:25.817Z,1008.83
2022-08-03T08:22:30.620Z,1008.74
2022-08-03T08:23:42.931Z,1008.81
2022-08-03T08:24:24.227Z,1008.82
2022-08-03T08:25:23.415Z,1008.77
2022-08-03T08:26:23.454Z,1008.77
2022-08-03T08:27:23.591Z,1008.76
2022-08-03T08:28:32.127Z,1008.81
2022-08-03T08:29:24.875Z,1008.80
2022-08-03T08:30:23.986Z,1008.80
2022-08-03T08:31:24.128Z,1008.78
2022-08-03T08:32:24.238Z,1008.81
2022-08-03T08:33:25.772Z,1008.76
2022-08-03T08:34:24.455Z,1008.81
2022-08-03T08:35:24.609Z,1008.76
2022-08-03T08:36:24.728Z,1008.83
2022-08-03T08:37:24.816Z,1008.75
2022-08-03T08:38:25.039Z,1008.78
2022-08-03T08:39:25.069Z,1008.80
2022-08-03T08:40:25.217Z,1008.79
2022-08-03T08:41:25.329Z,1008.77
2022-08-03T08:42:26.516Z,1008.83
2022-08-03T08:43:25.579Z,1008.80
2022-08-03T08:44:25.729Z,1008.82
2022-08-03T08:45:25.828Z,1008.75
2022-08-03T08:46:25.976Z,1008.80
2022-08-03T08:47:26.116Z,1008.83
2022-08-03T08:48:26.217Z,1008.73
2022-08-03T08:49:26.336Z,1008.71
2022-08-03T08:50:27.884Z,1008.75
2022-08-03T08:51:59.101Z,1008.75
2022-08-03T08:52:31.967Z,1008.79
2022-08-03T08:53:27.691Z,1008.76
2022-08-03T08:54:26.969Z,1008.76
2022-08-03T08:55:27.112Z,1008.74
2022-08-03T08:56:27.226Z,1008.72
2022-08-03T08:57:42.250Z,1008.79
2022-08-03T08:58:28.489Z,1008.79
2022-08-03T08:59:27.579Z,1008.81
2022-08-03T09:00:28.688Z,1008.79
2022-08-03T09:01:27.867Z,1008.74
2022-08-03T09:02:27.962Z,1008.81
2022-08-03T09:03:29.995Z,1008.85
2022-08-03T09:04:28.207Z,1008.87
2022-08-03T09:05:54.841Z,1008.85
2022-08-03T09:06:29.470Z,1008.80
2022-08-03T09:07:28.598Z,1008.86
2022-08-03T09:08:28.737Z,1008.82
2022-08-03T09:10:08.218Z,1008.83
2022-08-03T09:10:29.990Z,1008.84
2022-08-03T09:11:51.777Z,1008.81
2022-08-03T09:12:42.006Z,1008.77
2022-08-03T09:13:30.362Z,1008.78
2022-08-03T09:14:36.738Z,1008.71
2022-08-03T09:15:30.632Z,1008.77
2022-08-03T09:16:29.771Z,1008.80
2022-08-03T09:17:29.877Z,1008.78
2022-08-03T09:18:32.216Z,1008.75
2022-08-03T09:19:30.211Z,1008.79
2022-08-03T09:20:30.270Z,1008.76
2022-08-03T09:21:32.828Z,1008.81
2022-08-03T09:22:30.562Z,1008.82
2022-08-03T09:23:59.515Z,1008.79
2022-08-03T09:24:41.305Z,1008.88
2022-08-03T09:25:31.935Z,1008.80
2022-08-03T09:26:31.135Z,1008.80
2022-08-03T09:27:31.162Z,1008.86
2022-08-03T09:28:56.481Z,1008.79
2022-08-03T09:29:32.432Z,1008.77
2022-08-03T09:30:34.742Z,1008.80
2022-08-03T09:31:31.678Z,1008.79
2022-08-03T09:32:32.904Z,1008.81
2022-08-03T09:33:36.046Z,1008.80
2022-08-03T09:34:32.182Z,1008.82
2022-08-03T09:35:53.202Z,1008.81
2022-08-03T09:36:34.520Z,1008.73
2022-08-03T09:38:08.529Z,1008.76
2022-08-03T09:38:33.562Z,1008.77
2022-08-03T09:39:41.180Z,1008.71
2022-08-03T09:40:33.826Z,1008.72
2022-08-03T09:41:32.955Z,1008.77
2022-08-03T09:42:33.103Z,1008.71
2022-08-03T09:43:33.209Z,1008.78
2022-08-03T09:44:33.375Z,1008.78
2022-08-03T09:45:33.454Z,1008.75
2022-08-03T09:46:33.610Z,1008.71
2022-08-03T09:47:33.759Z,1008.75
2022-08-03T09:48:33.852Z,1008.73
2022-08-03T09:49:34.027Z,1008.73
2022-08-03T09:50:34.155Z,1008.76
2022-08-03T09:52:32.222Z,1008.69
2022-08-03T09:52:39.187Z,1008.69
2022-08-03T09:53:35.515Z,1008.75
2022-08-03T09:54:34.606Z,1008.70
2022-08-03T09:56:33.753Z,1008.70
2022-08-03T09:56:37.211Z,1008.79
2022-08-03T09:57:35.035Z,1008.75
2022-08-03T09:58:35.113Z,1008.77
2022-08-03T09:59:35.253Z,1008.79
2022-08-03T10:00:35.375Z,1008.76
2022-08-03T10:01:35.603Z,1008.78
2022-08-03T10:02:35.926Z,1008.76
2022-08-03T10:03:35.748Z,1008.76
2022-08-03T10:04:37.599Z,1008.76
2022-08-03T10:05:35.987Z,1008.77
2022-08-03T10:06:36.075Z,1008.68
2022-08-03T10:07:36.224Z,1008.64
2022-08-03T10:08:37.328Z,1008.64
2022-08-03T10:09:36.469Z,1008.71
2022-08-03T10:10:36.588Z,1008.70
2022-08-03T10:11:41.341Z,1008.66
2022-08-03T10:12:37.818Z,1008.71
2022-08-03T10:13:36.948Z,1008.73
2022-08-03T10:14:37.048Z,1008.72
2022-08-03T10:16:23.238Z,1008.71
2022-08-03T10:16:40.279Z,1008.71
2022-08-03T10:17:40.331Z,1008.64
2022-08-03T10:18:37.563Z,1008.66
2022-08-03T10:19:37.711Z,1008.73
2022-08-03T10:20:37.851Z,1008.61
2022-08-03T10:21:38.000Z,1008.63
2022-08-03T10:22:38.113Z,1008.64
2022-08-03T10:23:38.290Z,1008.74
2022-08-03T10:24:38.377Z,1008.62
2022-08-03T10:25:38.528Z,1008.61
2022-08-03T10:26:38.668Z,1008.63
2022-08-03T10:27:38.852Z,1008.64
2022-08-03T10:28:42.973Z,1008.67
2022-08-03T10:29:39.994Z,1008.60
2022-08-03T10:30:39.121Z,1008.67
2022-08-03T10:31:39.259Z,1008.55
2022-08-03T10:32:40.393Z,1008.58
2022-08-03T10:33:50.633Z,1008.59
2022-08-03T10:34:44.416Z,1008.56
2022-08-03T10:35:39.740Z,1008.61
2022-08-03T10:36:39.837Z,1008.53
2022-08-03T10:37:39.999Z,1008.55
2022-08-03T10:38:41.113Z,1008.50
2022-08-03T10:39:40.253Z,1008.52
2022-08-03T10:40:48.816Z,1008.52
2022-08-03T10:41:41.500Z,1008.51
2022-08-03T10:42:42.093Z,1008.48
2022-08-03T10:43:40.763Z,1008.47
2022-08-03T10:44:40.840Z,1008.53
2022-08-03T10:45:40.952Z,1008.54
2022-08-03T10:46:44.751Z,1008.51
2022-08-03T10:47:41.213Z,1008.59
2022-08-03T10:48:41.339Z,1008.47
2022-08-03T10:49:41.510Z,1008.56
2022-08-03T10:50:41.592Z,1008.47
2022-08-03T10:51:41.734Z,1008.45
2022-08-03T10:52:43.543Z,1008.41
2022-08-03T10:53:42.071Z,1008.46
2022-08-03T10:54:42.104Z,1008.46
2022-08-03T10:55:42.233Z,1008.33
2022-08-03T10:56:48.066Z,1008.31
2022-08-03T10:57:43.458Z,1008.36
2022-08-03T10:58:57.060Z,1008.40
2022-08-03T10:59:43.692Z,1008.34
2022-08-03T11:00:42.824Z,1008.34
2022-08-03T11:01:58.359Z,1008.29
2022-08-03T11:02:44.023Z,1008.32
2022-08-03T11:03:43.177Z,1008.33
2022-08-03T11:04:43.284Z,1008.33
2022-08-03T11:05:43.408Z,1008.37
2022-08-03T11:06:43.523Z,1008.30
2022-08-03T11:07:43.635Z,1008.31
2022-08-03T11:08:44.755Z,1008.27
2022-08-03T11:09:43.918Z,1008.27
2022-08-03T11:10:43.990Z,1008.31
2022-08-03T11:11:44.144Z,1008.27
2022-08-03T11:12:44.305Z,1008.18
2022-08-03T11:13:44.405Z,1008.29
2022-08-03T11:14:44.535Z,1008.25
2022-08-03T11:15:44.623Z,1008.25
2022-08-03T11:16:44.789Z,1008.27
2022-08-03T11:17:46.612Z,1008.25
2022-08-03T11:18:46.028Z,1008.22
2022-08-03T11:19:56.895Z,1008.23
2022-08-03T11:20:46.293Z,1008.19
2022-08-03T11:21:45.446Z,1008.20
2022-08-03T11:22:45.552Z,1008.22
2022-08-03T11:24:04.082Z,1008.23
2022-08-03T11:24:46.805Z,1008.23
2022-08-03T11:25:54.840Z,1008.28
2022-08-03T11:26:47.064Z,1008.18
2022-08-03T11:27:46.205Z,1008.19
2022-08-03T11:28:46.345Z,1008.15
2022-08-03T11:29:46.517Z,1008.18
2022-08-03T11:30:47.334Z,1008.15
2022-08-03T11:31:50.330Z,1008.23
2022-08-03T11:32:48.688Z,1008.15
2022-08-03T11:33:46.932Z,1008.10
2022-08-03T11:34:47.246Z,1008.13
2022-08-03T11:35:47.206Z,1008.12
2022-08-03T11:36:47.304Z,1008.22
2022-08-03T11:38:01.985Z,1008.17
2022-08-03T11:38:48.560Z,1008.15
2022-08-03T11:39:47.803Z,1008.18
2022-08-03T11:40:47.809Z,1008.21
2022-08-03T11:41:47.947Z,1008.14
2022-08-03T11:42:48.120Z,1008.13
2022-08-03T11:43:48.228Z,1008.16
2022-08-03T11:44:48.318Z,1008.10
2022-08-03T11:45:48.456Z,1008.16
2022-08-03T11:46:48.539Z,1008.24
2022-08-03T11:47:50.871Z,1008.16
2022-08-03T11:48:48.793Z,1008.11
2022-08-03T11:49:48.965Z,1008.14
2022-08-03T11:50:49.039Z,1008.06
2022-08-03T11:51:49.199Z,1008.18
2022-08-03T11:52:49.341Z,1008.10
2022-08-03T11:53:49.477Z,1008.13
2022-08-03T11:54:49.641Z,1008.07
2022-08-03T11:55:50.772Z,1008.11
2022-08-03T11:56:49.894Z,1008.09
2022-08-03T11:58:57.762Z,1008.20
2022-08-03T11:59:18.874Z,1008.08
2022-08-03T11:59:51.328Z,1008.07
2022-08-03T12:00:50.388Z,1008.08
2022-08-03T12:01:50.550Z,1008.14
2022-08-03T12:02:50.691Z,1008.18
2022-08-03T12:03:50.803Z,1008.18
2022-08-03T12:04:50.900Z,1008.15
2022-08-03T12:05:52.433Z,1008.05
2022-08-03T12:06:51.247Z,1008.18